Productos aeronáuticos

  • SIGMET
  • METAR / SPECI
  • TAF
  • AIREP
  • Aviso de aeródromo
  • Pronárea
  • Carta superficie

Mensajes METAR de la última hora

SUMU 260900Z 24006KT 9999 FEW008 14/13 Q1013 TEMPO DZ BR
SUSO 260900Z 22007KT 9999 OVC007 15/13 Q1015

Mensajes METAR de la última hora - Internacionales


Argentina
SAAR 260900Z 20011KT 9999 FEW009 SCT014 OVC018 12/09 Q1017
SABE 260900Z 22004KT 9999 FEW040 SCT100 13/11 Q1016
SACO 260900Z 25004KT CAVOK 08/07 Q1020
SAEZ 260900Z 23005KT 8000 BKN029 BKN050 12/12 Q1015
SAME 260900Z 23004KT CAVOK 04/03 Q1020
Bolivia
SLLP 260900Z 08004KT 4000E VCFG FEW002 SCT010 BKN200 04/04 Q1038
SLLP 260812Z 08005KT 3000E VCFG FEW002 SCT009 BKN200 05/05 Q1038
Brasil
SBBR 260900Z 00000KT CAVOK 17/17 Q1022
SBFI 260900Z 02005KT CAVOK 23/22 Q1013
SBFL 260900Z 36011KT 9999 SCT012 SCT100 21/19 Q1013
SBGR 260900Z 07007KT 0300 R09L/0500N R09R/0500N R27L/0600N R27R /0700N FG OVC001 17/17 Q1021
SBPA 260900Z 05005KT 020V080 3000 -TSRA BR SCT015 BKN024 FEW030 CB OVC070 21/21 Q1011
SBRJ 260900Z 36003KT CAVOK 21/20 Q1017
SBSP 260900Z 04003KT 9000 NSC 18/16 Q1021
SBPA 260826Z VRB01KT 4000 -TSRA BR FEW017 BKN025 FEW030CB OVC08 0 21/21 Q1010
Colombia
SKBO 260900Z 00000KT 9999 FE040 11/07 A3035
Chile
SCCI 260900Z 25010KT 9999 FEW040 01/M03 Q1015 NOSIG
SCEL 260900Z 00000KT 7000 2500N BR FEW120 BKN200 06/05 Q1019 NOSIG
Ecuador
SEQM 260900Z 35004KT 9999 BCFG SCT004 BKN020 14/13 Q1026 NOSIG RMK A3032
EEUU
KLGA 260908Z 33005KT 7SM OVC018 14/12 A2950 RMK AO2 RAE0852 P0000 T01390122
KMIA 260853Z 00000KT 10SM FEW045 SCT060 BKN075 BKN250 27/24 A2998 RMK AO2 RAB44E49 SLP153 P0000 60000 T02670239 55000
KDCA 260852Z 22006KT 10SM BKN090 16/14 A2964 RMK AO2 SLP035 T01560139 51018
KIAD 260852Z 21007KT 10SM FEW050 BKN070 BKN085 13/12 A2964 RMK AO2 SLP035 T01330122 51018
KJFK 260851Z 31007KT 5SM -RA BR BKN010 OVC027 14/14 A2951 RMK AO2 SLP992 P0009 60013 T01390139 53013
KLGA 260851Z 32006KT 10SM -RA BKN013 OVC018 14/13 A2950 RMK AO2 RAB01 SLP988 P0007 60010 T01390128 53016
KJFK 260828Z 32006KT 5SM +RA BR BKN010 OVC031 14/14 A2951 RMK AO2 P0006 T01390139
KLGA 260811Z 32006KT 8SM -RA OVC014 14/12 A2948 RMK AO2 RAB01 P0001 T01390122
España
LEBL 260900Z 08010KT 9999 FEW010 21/17 Q1016 NOSIG
LEMD 260900Z 18003KT 140V250 CAVOK 26/08 Q1015 NOSIG
LEBL 260830Z 08010KT 9999 FEW010 21/17 Q1016 NOSIG
LEMD 260830Z VRB04KT CAVOK 25/08 Q1015 NOSIG
Francia
LFPO 260900Z 08014KT CAVOK 23/11 Q1017 NOSIG
LFPO 260830Z 09013KT CAVOK 22/12 Q1017 NOSIG
Inglaterra
EGLL 260850Z AUTO 12010KT 100V160 9999 NCD 24/12 Q1019
EGLL 260820Z AUTO 11010KT 9999 NCD 23/13 Q1019
Panamá
MPTO 260900Z 30003KT 9999 FEW018CB SCT090 25/25 Q1011 NOSIG
Paraguay
SGAS 260900Z 04005KT 9999 FEW033 SCT080 25/23 Q1010

* Datos extraidos del Text DataServer de la NOAA (NOAA TEXT DATA SERVER)

Instituto Uruguayo de Meteorología

Dr. Javier Barrios Amorín 1488 - CP 11200
Mesa Central (598) 1895

Montevideo - Uruguay